Portada
METAR-TAF:

METAR-TAF

Aeroports :

Maputo, Moçambic

Aeroport Internacional de Maputo

latitud: 25-55S, longitud: 032-34E, altitud: 39 m

Observació

L'informe es va fer fa 32 minuts, a les 08:00 UTC
Vent 11 kt del Nord
Temperatura 27°C
Humitat 62%
Pressió 1017 hPa
Visibilitat 10 km o més
sense núvols per sota de 1500 mi sense presència de cumulonimbus.

METAR: FQMA 240800Z 36011KT CAVOK 27/19 Q1017 NOSIG

Hora: 10:32 (08:32 UTC)


TAF: manca

Observacions i pronòstics meteorològics de més de 4000 aeroports (METAR i TAF).

Les estacions disponibles són els punts grocs i vermells al mapa.

Posi el ratolí al punt desitjat per veure el nom de l'estació.

Feu clic per veure les observacions i els pronòstics meteorològics.

Per canviar el mapa: feu clic els botons verds amb una creu de color negre per apropar; al botó verd amb un guió per allunyar la imatge; o en les fletxes verdes per a mapes adjacents.


METAR-TAF: